createdAt,value
2022-12-11T00:02:13.648Z,24.00
2022-12-11T00:04:41.540Z,24.10
2022-12-11T00:07:10.739Z,24.20
2022-12-11T00:09:38.655Z,24.20
2022-12-11T00:12:07.431Z,24.30
2022-12-11T00:14:35.288Z,24.30
2022-12-11T00:17:03.026Z,24.40
2022-12-11T00:19:30.804Z,24.50
2022-12-11T00:21:58.499Z,24.50
2022-12-11T00:24:27.483Z,24.60
2022-12-11T00:26:55.167Z,24.70
2022-12-11T00:29:22.896Z,24.80
2022-12-11T00:31:50.613Z,24.80
2022-12-11T00:34:18.432Z,24.80
2022-12-11T00:36:46.242Z,24.90
2022-12-11T00:39:13.995Z,25.00
2022-12-11T00:41:43.036Z,25.10
2022-12-11T00:44:10.671Z,25.20
2022-12-11T00:46:38.455Z,25.20
2022-12-11T00:49:06.165Z,25.30
2022-12-11T00:51:33.839Z,25.30
2022-12-11T00:54:01.526Z,25.40
2022-12-11T00:56:29.285Z,25.50
2022-12-11T00:58:58.309Z,25.50
2022-12-11T01:01:26.356Z,25.60
2022-12-11T01:03:54.421Z,25.70
2022-12-11T01:06:23.016Z,25.80
2022-12-11T01:09:12.172Z,25.90
2022-12-11T01:11:39.133Z,25.90
2022-12-11T01:14:08.208Z,26.00
2022-12-11T01:16:35.918Z,26.10
2022-12-11T01:19:03.654Z,26.10
2022-12-11T01:21:31.365Z,26.20
2022-12-11T01:23:59.050Z,26.30
2022-12-11T01:26:26.738Z,26.30
2022-12-11T01:28:54.478Z,26.40
2022-12-11T01:31:23.502Z,26.40
2022-12-11T01:33:51.165Z,26.50
2022-12-11T01:36:20.254Z,26.60
2022-12-11T01:38:48.350Z,26.70
2022-12-11T01:41:16.055Z,26.70
2022-12-11T01:44:00.654Z,26.80
2022-12-11T01:46:29.965Z,27.00
2022-12-11T01:48:57.726Z,27.00
2022-12-11T01:51:25.549Z,27.10
2022-12-11T01:53:54.670Z,27.10
2022-12-11T01:56:22.342Z,27.20
2022-12-11T01:58:53.083Z,27.30
2022-12-11T02:01:23.441Z,27.40
2022-12-11T02:04:17.987Z,27.40
2022-12-11T02:06:46.705Z,27.50
2022-12-11T02:09:15.311Z,27.60
2022-12-11T02:11:48.840Z,27.60
2022-12-11T02:14:20.228Z,27.80
2022-12-11T02:16:49.964Z,27.80
2022-12-11T02:19:29.178Z,27.90
2022-12-11T02:21:56.843Z,28.00
2022-12-11T02:24:40.769Z,28.00
2022-12-11T02:27:15.110Z,28.10
2022-12-11T02:29:46.642Z,28.20
2022-12-11T02:32:16.202Z,28.20
2022-12-11T02:34:45.486Z,28.30
2022-12-11T02:37:16.082Z,28.30
2022-12-11T02:39:43.943Z,28.30
2022-12-11T02:42:11.887Z,28.40
2022-12-11T02:44:39.603Z,28.40
2022-12-11T02:47:09.812Z,28.40
2022-12-11T02:49:37.499Z,28.50
2022-12-11T02:52:05.489Z,28.50
2022-12-11T02:54:34.481Z,28.50
2022-12-11T02:57:04.654Z,28.50
2022-12-11T02:59:34.543Z,28.60
2022-12-11T03:02:02.357Z,28.60
2022-12-11T03:04:31.469Z,28.60
2022-12-11T03:07:01.397Z,28.70
2022-12-11T03:09:29.219Z,28.60
2022-12-11T03:11:56.885Z,28.70
2022-12-11T03:14:24.532Z,28.70
2022-12-11T03:16:55.343Z,28.70
2022-12-11T03:19:28.156Z,28.70
2022-12-11T03:22:00.423Z,28.60
2022-12-11T03:24:30.692Z,28.70
2022-12-11T03:27:01.405Z,28.70
2022-12-11T03:29:32.451Z,28.70
2022-12-11T03:32:01.846Z,28.70
2022-12-11T03:34:31.329Z,28.70
2022-12-11T03:37:00.604Z,28.70
2022-12-11T03:39:30.842Z,28.60
2022-12-11T03:41:58.556Z,28.60
2022-12-11T03:44:26.249Z,28.60
2022-12-11T03:46:53.887Z,28.60
2022-12-11T03:49:24.243Z,28.50
2022-12-11T03:51:52.389Z,28.50
2022-12-11T03:54:21.409Z,28.50
2022-12-11T03:56:49.133Z,28.50
2022-12-11T03:59:16.818Z,28.50
2022-12-11T04:01:44.559Z,28.50
2022-12-11T04:04:12.429Z,28.50
2022-12-11T04:06:40.131Z,28.40
2022-12-11T04:09:07.821Z,28.40
2022-12-11T04:11:36.869Z,28.40
2022-12-11T04:14:22.862Z,28.30
2022-12-11T04:16:50.516Z,28.30
2022-12-11T04:19:36.761Z,28.30
2022-12-11T04:22:22.200Z,28.30
2022-12-11T04:24:50.093Z,28.20
2022-12-11T04:27:39.257Z,28.20
2022-12-11T04:30:08.326Z,28.20
2022-12-11T04:32:35.974Z,28.20
2022-12-11T04:35:03.799Z,28.20
2022-12-11T04:37:31.487Z,28.20
2022-12-11T04:39:59.183Z,28.10
2022-12-11T04:42:28.182Z,28.10
2022-12-11T04:44:55.867Z,28.10
2022-12-11T04:47:23.664Z,28.10
2022-12-11T04:49:51.319Z,28.10
2022-12-11T04:52:19.197Z,28.00
2022-12-11T04:54:46.980Z,28.00
2022-12-11T04:57:14.643Z,28.00
2022-12-11T04:59:43.672Z,28.00
2022-12-11T05:02:11.327Z,27.90
2022-12-11T05:04:39.014Z,27.90
2022-12-11T05:07:06.649Z,27.90
2022-12-11T05:09:34.344Z,27.80
2022-12-11T05:12:02.033Z,27.80
2022-12-11T05:14:31.880Z,27.80
2022-12-11T05:17:00.868Z,27.70
2022-12-11T05:19:28.651Z,27.70
2022-12-11T05:21:59.049Z,27.70
2022-12-11T05:24:26.722Z,27.60
2022-12-11T05:26:54.377Z,27.60
2022-12-11T05:29:22.066Z,27.60
2022-12-11T05:31:49.724Z,27.60
2022-12-11T05:34:18.918Z,27.50
2022-12-11T05:36:47.182Z,27.50
2022-12-11T05:39:14.836Z,27.40
2022-12-11T05:41:42.511Z,27.50
2022-12-11T05:44:11.448Z,27.40
2022-12-11T05:46:39.257Z,27.40
2022-12-11T05:49:06.982Z,27.30
2022-12-11T05:51:35.987Z,27.30
2022-12-11T05:54:03.717Z,27.30
2022-12-11T05:56:32.443Z,27.30
2022-12-11T05:59:00.445Z,27.30
2022-12-11T06:01:29.044Z,27.20
2022-12-11T06:03:57.117Z,27.20
2022-12-11T06:06:24.850Z,27.20
2022-12-11T06:08:54.030Z,27.20
2022-12-11T06:11:24.104Z,27.10
2022-12-11T06:13:52.285Z,27.10
2022-12-11T06:16:20.372Z,27.00
2022-12-11T06:18:48.150Z,27.00
2022-12-11T06:21:16.120Z,27.00
2022-12-11T06:23:43.936Z,27.00
2022-12-11T06:26:13.078Z,27.00
2022-12-11T06:28:40.730Z,26.90
2022-12-11T06:31:08.655Z,26.90
2022-12-11T06:33:36.415Z,26.90
2022-12-11T06:36:04.188Z,26.80
2022-12-11T06:38:31.871Z,26.80
2022-12-11T06:41:01.819Z,26.80
2022-12-11T06:43:30.822Z,26.80
2022-12-11T06:46:03.881Z,26.80
2022-12-11T06:48:32.145Z,26.70
2022-12-11T06:50:59.798Z,26.70
2022-12-11T06:53:27.719Z,26.60
2022-12-11T06:55:55.402Z,26.60
2022-12-11T06:58:23.050Z,26.60
2022-12-11T07:00:52.099Z,26.60
2022-12-11T07:03:19.977Z,26.60
2022-12-11T07:05:47.626Z,26.50
2022-12-11T07:08:15.769Z,26.60
2022-12-11T07:10:43.475Z,26.50
2022-12-11T07:13:11.178Z,26.50
2022-12-11T07:15:40.545Z,26.40
2022-12-11T07:18:10.686Z,26.40
2022-12-11T07:20:38.578Z,26.40
2022-12-11T07:23:06.434Z,26.30
2022-12-11T07:25:34.138Z,26.30
2022-12-11T07:28:01.815Z,26.30
2022-12-11T07:30:29.449Z,26.20
2022-12-11T07:32:57.187Z,26.20
2022-12-11T07:35:26.299Z,26.20
2022-12-11T07:37:53.981Z,26.20
2022-12-11T07:40:21.691Z,26.20
2022-12-11T07:42:49.343Z,26.20
2022-12-11T07:45:17.121Z,26.10
2022-12-11T07:47:44.843Z,26.10
2022-12-11T07:50:12.518Z,26.00
2022-12-11T07:52:41.587Z,26.00
2022-12-11T07:55:10.280Z,26.00
2022-12-11T07:57:38.054Z,26.00
2022-12-11T08:00:06.929Z,26.00
2022-12-11T08:02:40.198Z,26.00
2022-12-11T08:05:09.480Z,26.00
2022-12-11T08:07:37.368Z,25.90
2022-12-11T08:10:07.143Z,25.90
2022-12-11T08:12:34.846Z,25.90
2022-12-11T08:15:02.556Z,25.90
2022-12-11T08:17:33.917Z,25.90
2022-12-11T08:20:05.320Z,25.80
2022-12-11T08:22:33.046Z,25.80
2022-12-11T08:25:00.743Z,25.80
2022-12-11T08:27:30.586Z,25.80
2022-12-11T08:29:58.298Z,25.70
2022-12-11T08:32:25.982Z,25.70
2022-12-11T08:34:53.631Z,25.60
2022-12-11T08:37:21.308Z,25.60
2022-12-11T08:39:49.004Z,25.60
2022-12-11T08:42:16.712Z,25.60
2022-12-11T08:44:45.987Z,25.60
2022-12-11T08:47:15.257Z,25.60
2022-12-11T08:49:42.918Z,25.50
2022-12-11T08:52:10.615Z,25.50
2022-12-11T08:54:38.470Z,25.40
2022-12-11T08:57:06.147Z,25.50
2022-12-11T08:59:34.026Z,25.50
2022-12-11T09:02:03.041Z,25.40
2022-12-11T09:04:30.814Z,25.40
2022-12-11T09:06:58.561Z,25.40
2022-12-11T09:09:26.254Z,25.50
2022-12-11T09:11:54.022Z,25.60
2022-12-11T09:14:21.952Z,25.80
2022-12-11T09:16:49.621Z,25.90
2022-12-11T09:19:18.606Z,26.00
2022-12-11T09:21:46.277Z,26.10
2022-12-11T09:24:14.201Z,26.20
2022-12-11T09:26:42.070Z,26.30
2022-12-11T09:29:13.361Z,25.80
2022-12-11T09:31:41.081Z,25.80
2022-12-11T09:34:09.926Z,25.80
2022-12-11T09:36:39.188Z,25.90
2022-12-11T09:39:07.708Z,25.90
2022-12-11T09:41:40.303Z,25.90
2022-12-11T09:44:17.688Z,25.80
2022-12-11T09:46:45.456Z,25.80
2022-12-11T09:49:21.262Z,25.80
2022-12-11T09:51:51.608Z,25.90
2022-12-11T09:54:19.392Z,26.00
2022-12-11T09:56:48.863Z,25.90
2022-12-11T09:59:19.871Z,25.80
2022-12-11T10:01:50.561Z,25.80
2022-12-11T10:04:29.387Z,25.80
2022-12-11T10:07:03.188Z,25.90
2022-12-11T10:09:34.370Z,25.90
2022-12-11T10:12:08.059Z,25.90
2022-12-11T10:14:44.848Z,25.90
2022-12-11T10:17:14.163Z,25.90
2022-12-11T10:19:42.197Z,26.00
2022-12-11T10:22:13.772Z,25.90
2022-12-11T10:25:10.004Z,26.10
2022-12-11T10:27:31.972Z,26.10
2022-12-11T10:30:03.427Z,26.20
2022-12-11T10:32:33.456Z,26.20
2022-12-11T10:35:03.595Z,26.30
2022-12-11T10:37:32.728Z,26.20
2022-12-11T10:40:00.403Z,26.20
2022-12-11T10:42:28.082Z,26.30
2022-12-11T10:45:00.372Z,26.20
2022-12-11T10:47:28.039Z,26.20
2022-12-11T10:49:58.169Z,26.20
2022-12-11T10:52:27.003Z,26.10
2022-12-11T10:55:00.136Z,26.10
2022-12-11T10:57:29.483Z,26.10
2022-12-11T10:59:57.199Z,26.00
2022-12-11T11:02:26.304Z,25.90
2022-12-11T11:04:54.196Z,26.00
2022-12-11T11:07:23.636Z,25.90
2022-12-11T11:09:51.727Z,25.90
2022-12-11T11:12:23.389Z,26.10
2022-12-11T11:15:00.727Z,26.00
2022-12-11T11:17:33.823Z,26.10
2022-12-11T11:20:07.374Z,26.00
2022-12-11T11:22:38.168Z,26.00
2022-12-11T11:25:06.549Z,25.90
2022-12-11T11:27:36.938Z,25.80
2022-12-11T11:30:06.185Z,25.90
2022-12-11T11:32:34.913Z,26.00
2022-12-11T11:35:24.499Z,26.00
2022-12-11T11:38:01.491Z,26.00
2022-12-11T11:40:30.729Z,25.90
2022-12-11T11:43:06.212Z,26.10
2022-12-11T11:45:36.019Z,26.10
2022-12-11T11:48:11.434Z,26.30
2022-12-11T11:50:39.516Z,26.20
2022-12-11T11:53:10.207Z,26.10
2022-12-11T11:55:43.603Z,26.00
2022-12-11T11:58:15.624Z,26.00
2022-12-11T12:00:43.347Z,26.00
2022-12-11T12:03:11.871Z,26.00
2022-12-11T12:05:43.986Z,25.90
2022-12-11T12:08:14.086Z,25.90
2022-12-11T12:10:45.180Z,26.10
2022-12-11T12:13:47.587Z,26.20
2022-12-11T12:16:22.936Z,26.30
2022-12-11T12:18:57.583Z,26.20
2022-12-11T12:21:28.381Z,26.20
2022-12-11T12:24:09.063Z,26.20
2022-12-11T12:26:37.582Z,26.30
2022-12-11T12:29:14.039Z,26.40
2022-12-11T12:31:49.430Z,26.40
2022-12-11T12:34:21.320Z,26.60
2022-12-11T12:36:52.284Z,27.30
2022-12-11T12:39:22.955Z,28.00
2022-12-11T12:41:53.972Z,28.60
2022-12-11T12:44:23.857Z,29.20
2022-12-11T12:46:55.404Z,29.30
2022-12-11T12:49:34.416Z,28.90
2022-12-11T12:52:02.500Z,28.50
2022-12-11T12:54:30.284Z,28.80
2022-12-11T12:56:58.126Z,29.00
2022-12-11T12:59:28.638Z,29.30
2022-12-11T13:01:57.489Z,29.00
2022-12-11T13:04:54.334Z,28.40
2022-12-11T13:07:20.260Z,28.00
2022-12-11T13:09:57.737Z,27.50
2022-12-11T13:12:43.925Z,27.20
2022-12-11T13:15:30.907Z,26.80
2022-12-11T13:17:58.719Z,26.50
2022-12-11T13:20:27.341Z,26.30
2022-12-11T13:22:57.237Z,26.20
2022-12-11T13:25:28.186Z,26.00
2022-12-11T13:28:05.898Z,25.90
2022-12-11T13:30:35.465Z,25.90
2022-12-11T13:33:05.029Z,25.70
2022-12-11T13:35:33.326Z,25.70
2022-12-11T13:38:07.123Z,25.60
2022-12-11T13:40:40.032Z,25.70
2022-12-11T13:43:11.144Z,25.60
2022-12-11T13:45:45.575Z,25.60
2022-12-11T13:48:18.886Z,25.60
2022-12-11T13:50:47.082Z,25.60
2022-12-11T13:53:15.441Z,25.60
2022-12-11T13:55:43.501Z,25.50
2022-12-11T13:58:20.523Z,25.50
2022-12-11T14:01:00.176Z,25.60
2022-12-11T14:03:27.974Z,25.50
2022-12-11T14:05:58.635Z,25.50
2022-12-11T14:08:30.567Z,25.50
2022-12-11T14:10:58.313Z,25.40
2022-12-11T14:13:27.175Z,25.30
2022-12-11T14:15:58.876Z,25.30
2022-12-11T14:18:28.597Z,25.30
2022-12-11T14:20:57.236Z,25.30
2022-12-11T14:23:26.604Z,25.30
2022-12-11T14:25:55.110Z,25.20
2022-12-11T14:28:23.175Z,25.20
2022-12-11T14:30:51.731Z,25.30
2022-12-11T14:33:23.019Z,25.30
2022-12-11T14:35:50.812Z,25.20
2022-12-11T14:38:20.153Z,25.20
2022-12-11T14:40:50.224Z,25.20
2022-12-11T14:43:21.586Z,25.30
2022-12-11T14:45:49.800Z,25.30
2022-12-11T14:48:22.179Z,25.30
2022-12-11T14:50:50.835Z,25.30
2022-12-11T14:53:21.217Z,25.30
2022-12-11T14:55:49.748Z,25.30
2022-12-11T14:58:19.905Z,25.20
2022-12-11T15:00:57.335Z,25.20
2022-12-11T15:03:27.521Z,25.20
2022-12-11T15:05:56.743Z,25.20
2022-12-11T15:08:27.689Z,25.10
2022-12-11T15:11:05.975Z,25.10
2022-12-11T15:13:33.918Z,25.00
2022-12-11T15:16:01.745Z,24.90
2022-12-11T15:18:32.144Z,24.90
2022-12-11T15:21:00.692Z,25.00
2022-12-11T15:23:28.630Z,24.90
2022-12-11T15:25:57.926Z,25.00
2022-12-11T15:28:30.112Z,24.90
2022-12-11T15:30:58.783Z,24.90
2022-12-11T15:33:31.056Z,24.90
2022-12-11T15:36:04.376Z,24.90
2022-12-11T15:38:34.408Z,24.90
2022-12-11T15:41:02.349Z,24.90
2022-12-11T15:43:30.571Z,24.80
2022-12-11T15:45:58.280Z,24.80
2022-12-11T15:48:25.999Z,24.80
2022-12-11T15:50:53.690Z,24.80
2022-12-11T15:53:22.676Z,24.80
2022-12-11T15:55:50.820Z,24.80
2022-12-11T15:58:19.816Z,24.80
2022-12-11T16:00:47.576Z,24.80
2022-12-11T16:03:16.680Z,24.80
2022-12-11T16:05:44.544Z,24.70
2022-12-11T16:08:15.031Z,24.70
2022-12-11T16:10:44.211Z,24.70
2022-12-11T16:13:12.130Z,24.60
2022-12-11T16:15:40.000Z,24.60
2022-12-11T16:18:08.879Z,24.60
2022-12-11T16:20:36.899Z,24.60
2022-12-11T16:23:04.787Z,24.60
2022-12-11T16:25:32.726Z,24.50
2022-12-11T16:28:02.134Z,24.50
2022-12-11T16:30:29.989Z,24.50
2022-12-11T16:32:57.975Z,24.50
2022-12-11T16:35:25.853Z,24.30
2022-12-11T16:37:54.049Z,24.30
2022-12-11T16:40:22.029Z,24.20
2022-12-11T16:42:50.192Z,24.20
2022-12-11T16:45:19.998Z,24.10
2022-12-11T16:47:47.786Z,24.10
2022-12-11T16:50:16.039Z,24.10
2022-12-11T16:52:44.015Z,24.10
2022-12-11T16:55:12.474Z,24.10
2022-12-11T16:57:40.451Z,24.00
2022-12-11T17:00:11.972Z,24.00
2022-12-11T17:02:41.156Z,24.00
2022-12-11T17:05:09.173Z,23.90
2022-12-11T17:07:36.974Z,23.90
2022-12-11T17:10:04.922Z,23.80
2022-12-11T17:12:32.641Z,23.80
2022-12-11T17:15:00.336Z,23.80
2022-12-11T17:17:28.021Z,23.70
2022-12-11T17:19:58.261Z,23.70
2022-12-11T17:22:26.225Z,23.70
2022-12-11T17:24:54.224Z,23.60
2022-12-11T17:27:22.850Z,23.60
2022-12-11T17:29:50.781Z,23.60
2022-12-11T17:32:18.802Z,23.60
2022-12-11T17:34:48.431Z,23.50
2022-12-11T17:37:17.464Z,23.40
2022-12-11T17:39:46.455Z,23.40
2022-12-11T17:42:14.255Z,23.40
2022-12-11T17:44:41.917Z,23.40
2022-12-11T17:47:11.871Z,23.30
2022-12-11T17:49:39.647Z,23.30
2022-12-11T17:52:07.330Z,23.30
2022-12-11T17:54:36.407Z,23.30
2022-12-11T17:57:04.078Z,23.30
2022-12-11T17:59:31.822Z,23.20
2022-12-11T18:01:59.541Z,23.20
2022-12-11T18:04:27.245Z,23.10
2022-12-11T18:06:54.951Z,23.10
2022-12-11T18:09:22.652Z,23.10
2022-12-11T18:11:51.826Z,23.10
2022-12-11T18:14:19.519Z,23.10
2022-12-11T18:16:47.236Z,23.10
2022-12-11T18:19:15.592Z,23.10
2022-12-11T18:21:45.537Z,23.00
2022-12-11T18:24:13.270Z,23.00
2022-12-11T18:26:42.685Z,23.00
2022-12-11T18:29:11.722Z,22.90
2022-12-11T18:31:42.703Z,23.00
2022-12-11T18:34:11.020Z,22.90
2022-12-11T18:36:40.570Z,22.90
2022-12-11T18:39:08.281Z,22.90
2022-12-11T18:41:35.957Z,22.90
2022-12-11T18:44:09.342Z,22.90
2022-12-11T18:46:39.476Z,22.80
2022-12-11T18:49:07.320Z,22.80
2022-12-11T18:51:35.029Z,22.80
2022-12-11T18:54:02.682Z,22.80
2022-12-11T18:56:30.392Z,22.70
2022-12-11T18:58:58.099Z,22.70
2022-12-11T19:01:26.795Z,22.70
2022-12-11T19:04:02.365Z,22.70
2022-12-11T19:06:33.068Z,22.70
2022-12-11T19:09:00.786Z,22.70
2022-12-11T19:11:29.841Z,22.70
2022-12-11T19:13:57.701Z,22.60
2022-12-11T19:16:26.369Z,22.60
2022-12-11T19:18:55.401Z,22.60
2022-12-11T19:21:23.103Z,22.60
2022-12-11T19:23:50.755Z,22.60
2022-12-11T19:26:19.363Z,22.50
2022-12-11T19:28:47.394Z,22.40
2022-12-11T19:31:16.245Z,22.40
2022-12-11T19:33:44.257Z,22.50
2022-12-11T19:36:13.968Z,22.50
2022-12-11T19:38:42.082Z,22.40
2022-12-11T19:41:11.462Z,22.40
2022-12-11T19:43:39.174Z,22.40
2022-12-11T19:46:07.900Z,22.40
2022-12-11T19:48:37.318Z,22.30
2022-12-11T19:51:05.811Z,22.30
2022-12-11T19:53:34.894Z,22.30
2022-12-11T19:56:02.744Z,22.30
2022-12-11T19:58:30.446Z,22.30
2022-12-11T20:00:58.580Z,22.30
2022-12-11T20:03:26.414Z,22.30
2022-12-11T20:05:54.204Z,22.30
2022-12-11T20:08:43.688Z,22.20
2022-12-11T20:11:17.288Z,22.20
2022-12-11T20:13:46.539Z,22.20
2022-12-11T20:16:14.483Z,22.20
2022-12-11T20:18:42.721Z,22.10
2022-12-11T20:21:12.451Z,22.20
2022-12-11T20:23:40.107Z,22.10
2022-12-11T20:26:08.879Z,22.10
2022-12-11T20:28:38.338Z,22.10
2022-12-11T20:31:06.555Z,22.20
2022-12-11T20:33:34.380Z,22.10
2022-12-11T20:36:02.220Z,22.10
2022-12-11T20:38:34.304Z,22.10
2022-12-11T20:41:02.393Z,22.10
2022-12-11T20:43:30.107Z,22.00
2022-12-11T20:46:00.014Z,22.00
2022-12-11T20:48:27.770Z,22.00
2022-12-11T20:50:55.428Z,22.00
2022-12-11T20:53:23.206Z,22.00
2022-12-11T20:55:52.214Z,22.00
2022-12-11T20:58:20.491Z,22.00
2022-12-11T21:00:48.385Z,22.00
2022-12-11T21:03:17.462Z,21.90
2022-12-11T21:05:45.723Z,22.00
2022-12-11T21:08:13.485Z,21.90
2022-12-11T21:10:42.531Z,21.90
2022-12-11T21:13:10.193Z,21.90
2022-12-11T21:15:38.160Z,21.90
2022-12-11T21:18:06.089Z,21.90
2022-12-11T21:20:35.163Z,21.90
2022-12-11T21:23:03.031Z,21.80
2022-12-11T21:25:30.973Z,21.80
2022-12-11T21:27:58.755Z,21.80
2022-12-11T21:30:26.443Z,21.80
2022-12-11T21:32:54.199Z,21.80
2022-12-11T21:35:22.431Z,21.80
2022-12-11T21:37:51.473Z,21.80
2022-12-11T21:40:19.299Z,21.80
2022-12-11T21:42:46.958Z,21.80
2022-12-11T21:48:02.286Z,21.80
2022-12-11T21:50:29.966Z,21.70
2022-12-11T21:52:58.951Z,21.70
2022-12-11T21:55:26.671Z,21.70
2022-12-11T21:57:54.941Z,21.70
2022-12-11T22:00:22.989Z,21.60
2022-12-11T22:02:50.864Z,21.60
2022-12-11T22:05:18.540Z,21.60
2022-12-11T22:07:46.268Z,21.60
2022-12-11T22:10:15.332Z,21.60
2022-12-11T22:12:43.013Z,21.60
2022-12-11T22:15:11.348Z,21.50
2022-12-11T22:17:39.283Z,21.50
2022-12-11T22:20:07.757Z,21.50
2022-12-11T22:22:35.462Z,21.50
2022-12-11T22:25:03.526Z,21.50
2022-12-11T22:27:32.517Z,21.50
2022-12-11T22:30:00.184Z,21.50
2022-12-11T22:32:28.086Z,21.50
2022-12-11T22:34:57.622Z,21.40
2022-12-11T22:37:25.324Z,21.40
2022-12-11T22:39:52.987Z,21.40
2022-12-11T22:42:20.660Z,21.40
2022-12-11T22:44:49.663Z,21.40
2022-12-11T22:47:17.372Z,21.40
2022-12-11T22:49:45.053Z,21.30
2022-12-11T22:52:12.720Z,21.30
2022-12-11T22:54:40.493Z,21.30
2022-12-11T22:57:08.289Z,21.30
2022-12-11T22:59:36.392Z,21.30
2022-12-11T23:02:05.464Z,21.30
2022-12-11T23:04:33.268Z,21.30
2022-12-11T23:07:00.951Z,21.30
2022-12-11T23:09:28.691Z,21.20
2022-12-11T23:11:58.314Z,21.20
2022-12-11T23:14:26.485Z,21.20
2022-12-11T23:16:54.312Z,21.20
2022-12-11T23:19:25.595Z,21.20
2022-12-11T23:21:53.638Z,21.20
2022-12-11T23:24:21.347Z,21.10
2022-12-11T23:26:49.042Z,21.10
2022-12-11T23:29:16.715Z,21.10
2022-12-11T23:31:44.420Z,21.10
2022-12-11T23:34:12.111Z,21.10
2022-12-11T23:36:41.118Z,21.10
2022-12-11T23:39:08.790Z,21.10
2022-12-11T23:41:36.846Z,21.10
2022-12-11T23:44:04.625Z,21.10
2022-12-11T23:46:32.800Z,21.10
2022-12-11T23:49:00.563Z,21.00
2022-12-11T23:51:28.248Z,21.00
2022-12-11T23:53:57.267Z,21.00
2022-12-11T23:56:25.664Z,21.00
2022-12-11T23:58:53.493Z,21.00
